sensor_id;sensor_type;location;lat;lon;timestamp;P1;durP1;ratioP1;P2;durP2;ratioP2
63050;SDS011;49136;47.416;19.402;2022-10-30T00:00:30;69.13;;;25.42;;
63050;SDS011;49136;47.416;19.402;2022-10-30T00:02:55;73.38;;;21.92;;
63050;SDS011;49136;47.416;19.402;2022-10-30T00:05:21;59.55;;;21.60;;
63050;SDS011;49136;47.416;19.402;2022-10-30T00:07:47;74.55;;;20.65;;
63050;SDS011;49136;47.416;19.402;2022-10-30T00:10:13;72.97;;;22.63;;
63050;SDS011;49136;47.416;19.402;2022-10-30T00:12:39;60.20;;;20.98;;
63050;SDS011;49136;47.416;19.402;2022-10-30T00:15:05;70.68;;;21.23;;
63050;SDS011;49136;47.416;19.402;2022-10-30T00:17:31;71.78;;;20.95;;
63050;SDS011;49136;47.416;19.402;2022-10-30T00:19:57;61.97;;;21.10;;
63050;SDS011;49136;47.416;19.402;2022-10-30T00:22:22;55.72;;;20.23;;
63050;SDS011;49136;47.416;19.402;2022-10-30T00:24:48;64.30;;;19.98;;
63050;SDS011;49136;47.416;19.402;2022-10-30T00:27:13;64.97;;;19.77;;
63050;SDS011;49136;47.416;19.402;2022-10-30T00:29:38;63.35;;;19.02;;
63050;SDS011;49136;47.416;19.402;2022-10-30T00:32:04;51.40;;;17.65;;
63050;SDS011;49136;47.416;19.402;2022-10-30T00:34:29;65.57;;;19.88;;
63050;SDS011;49136;47.416;19.402;2022-10-30T00:36:55;72.18;;;19.73;;
63050;SDS011;49136;47.416;19.402;2022-10-30T00:39:20;62.72;;;19.27;;
63050;SDS011;49136;47.416;19.402;2022-10-30T00:41:45;61.42;;;18.98;;
63050;SDS011;49136;47.416;19.402;2022-10-30T00:47:02;69.97;;;21.02;;
63050;SDS011;49136;47.416;19.402;2022-10-30T00:49:32;50.95;;;20.00;;
63050;SDS011;49136;47.416;19.402;2022-10-30T00:52:01;54.85;;;20.65;;
63050;SDS011;49136;47.416;19.402;2022-10-30T00:54:29;56.72;;;19.85;;
63050;SDS011;49136;47.416;19.402;2022-10-30T00:56:56;57.08;;;18.77;;
63050;SDS011;49136;47.416;19.402;2022-10-30T00:59:22;50.95;;;18.30;;
63050;SDS011;49136;47.416;19.402;2022-10-30T01:01:50;53.97;;;19.20;;
63050;SDS011;49136;47.416;19.402;2022-10-30T01:04:17;76.43;;;21.50;;
63050;SDS011;49136;47.416;19.402;2022-10-30T01:06:43;72.80;;;22.70;;
63050;SDS011;49136;47.416;19.402;2022-10-30T01:09:12;69.25;;;21.27;;
63050;SDS011;49136;47.416;19.402;2022-10-30T01:11:38;59.72;;;19.55;;
63050;SDS011;49136;47.416;19.402;2022-10-30T01:14:04;62.70;;;19.67;;
63050;SDS011;49136;47.416;19.402;2022-10-30T01:19:34;59.22;;;18.88;;
63050;SDS011;49136;47.416;19.402;2022-10-30T01:24:45;44.35;;;17.45;;
63050;SDS011;49136;47.416;19.402;2022-10-30T01:27:25;56.67;;;19.15;;
63050;SDS011;49136;47.416;19.402;2022-10-30T01:32:54;66.07;;;21.58;;
63050;SDS011;49136;47.416;19.402;2022-10-30T01:37:57;64.32;;;20.63;;
63050;SDS011;49136;47.416;19.402;2022-10-30T01:40:28;58.63;;;21.33;;
63050;SDS011;49136;47.416;19.402;2022-10-30T01:42:54;60.15;;;20.17;;
63050;SDS011;49136;47.416;19.402;2022-10-30T01:51:09;78.78;;;19.27;;
63050;SDS011;49136;47.416;19.402;2022-10-30T01:59:39;65.45;;;19.92;;
63050;SDS011;49136;47.416;19.402;2022-10-30T02:02:14;55.40;;;17.35;;
63050;SDS011;49136;47.416;19.402;2022-10-30T02:04:40;58.08;;;21.13;;
63050;SDS011;49136;47.416;19.402;2022-10-30T02:07:06;69.38;;;20.33;;
63050;SDS011;49136;47.416;19.402;2022-10-30T02:09:31;52.25;;;18.90;;
63050;SDS011;49136;47.416;19.402;2022-10-30T02:11:58;74.13;;;19.73;;
63050;SDS011;49136;47.416;19.402;2022-10-30T02:14:27;56.90;;;19.50;;
63050;SDS011;49136;47.416;19.402;2022-10-30T02:16:57;51.05;;;19.40;;
63050;SDS011;49136;47.416;19.402;2022-10-30T02:19:26;66.82;;;20.48;;
63050;SDS011;49136;47.416;19.402;2022-10-30T02:21:52;64.85;;;19.55;;
63050;SDS011;49136;47.416;19.402;2022-10-30T02:24:17;60.70;;;20.48;;
63050;SDS011;49136;47.416;19.402;2022-10-30T02:26:42;68.20;;;21.08;;
63050;SDS011;49136;47.416;19.402;2022-10-30T02:29:08;64.47;;;19.95;;
63050;SDS011;49136;47.416;19.402;2022-10-30T02:31:33;63.17;;;21.38;;
63050;SDS011;49136;47.416;19.402;2022-10-30T02:33:59;51.83;;;19.58;;
63050;SDS011;49136;47.416;19.402;2022-10-30T02:36:24;57.58;;;19.42;;
63050;SDS011;49136;47.416;19.402;2022-10-30T02:38:50;53.50;;;19.30;;
63050;SDS011;49136;47.416;19.402;2022-10-30T02:41:15;47.58;;;17.77;;
63050;SDS011;49136;47.416;19.402;2022-10-30T02:43:41;43.67;;;17.73;;
63050;SDS011;49136;47.416;19.402;2022-10-30T02:46:06;62.65;;;21.17;;
63050;SDS011;49136;47.416;19.402;2022-10-30T02:48:32;59.55;;;20.13;;
63050;SDS011;49136;47.416;19.402;2022-10-30T02:50:58;53.00;;;17.38;;
63050;SDS011;49136;47.416;19.402;2022-10-30T02:53:27;71.07;;;18.23;;
63050;SDS011;49136;47.416;19.402;2022-10-30T02:55:53;44.92;;;17.10;;
63050;SDS011;49136;47.416;19.402;2022-10-30T02:58:18;49.03;;;17.85;;
63050;SDS011;49136;47.416;19.402;2022-10-30T03:00:44;55.22;;;19.50;;
63050;SDS011;49136;47.416;19.402;2022-10-30T03:03:09;56.58;;;19.40;;
63050;SDS011;49136;47.416;19.402;2022-10-30T03:05:35;46.10;;;16.20;;
63050;SDS011;49136;47.416;19.402;2022-10-30T03:08:00;58.13;;;17.52;;
63050;SDS011;49136;47.416;19.402;2022-10-30T03:10:25;61.83;;;18.35;;
63050;SDS011;49136;47.416;19.402;2022-10-30T03:12:51;40.15;;;16.55;;
63050;SDS011;49136;47.416;19.402;2022-10-30T03:15:16;50.72;;;16.45;;
63050;SDS011;49136;47.416;19.402;2022-10-30T03:17:42;48.88;;;16.90;;
63050;SDS011;49136;47.416;19.402;2022-10-30T03:20:07;49.53;;;17.50;;
63050;SDS011;49136;47.416;19.402;2022-10-30T03:22:33;57.15;;;18.98;;
63050;SDS011;49136;47.416;19.402;2022-10-30T03:24:59;55.45;;;17.27;;
63050;SDS011;49136;47.416;19.402;2022-10-30T03:27:24;57.30;;;19.13;;
63050;SDS011;49136;47.416;19.402;2022-10-30T03:29:49;59.22;;;19.15;;
63050;SDS011;49136;47.416;19.402;2022-10-30T03:32:15;54.00;;;17.27;;
63050;SDS011;49136;47.416;19.402;2022-10-30T03:34:40;53.47;;;19.13;;
63050;SDS011;49136;47.416;19.402;2022-10-30T03:37:05;56.42;;;19.35;;
63050;SDS011;49136;47.416;19.402;2022-10-30T03:39:31;42.85;;;15.73;;
63050;SDS011;49136;47.416;19.402;2022-10-30T03:41:56;37.70;;;16.40;;
63050;SDS011;49136;47.416;19.402;2022-10-30T03:44:21;53.65;;;17.50;;
63050;SDS011;49136;47.416;19.402;2022-10-30T03:46:47;37.42;;;17.05;;
63050;SDS011;49136;47.416;19.402;2022-10-30T03:49:12;41.13;;;15.00;;
63050;SDS011;49136;47.416;19.402;2022-10-30T03:51:37;64.85;;;19.20;;
63050;SDS011;49136;47.416;19.402;2022-10-30T03:54:03;55.97;;;19.27;;
63050;SDS011;49136;47.416;19.402;2022-10-30T03:56:28;48.65;;;17.33;;
63050;SDS011;49136;47.416;19.402;2022-10-30T03:58:54;52.80;;;16.95;;
63050;SDS011;49136;47.416;19.402;2022-10-30T04:01:19;48.08;;;16.17;;
63050;SDS011;49136;47.416;19.402;2022-10-30T04:03:44;58.72;;;19.88;;
63050;SDS011;49136;47.416;19.402;2022-10-30T04:06:10;45.53;;;17.98;;
63050;SDS011;49136;47.416;19.402;2022-10-30T04:08:36;59.65;;;20.45;;
63050;SDS011;49136;47.416;19.402;2022-10-30T04:11:04;44.20;;;16.65;;
63050;SDS011;49136;47.416;19.402;2022-10-30T04:13:29;43.05;;;14.38;;
63050;SDS011;49136;47.416;19.402;2022-10-30T04:15:55;52.58;;;16.98;;
63050;SDS011;49136;47.416;19.402;2022-10-30T04:18:20;44.70;;;16.88;;
63050;SDS011;49136;47.416;19.402;2022-10-30T04:20:46;59.33;;;19.13;;
63050;SDS011;49136;47.416;19.402;2022-10-30T04:23:13;47.05;;;16.23;;
63050;SDS011;49136;47.416;19.402;2022-10-30T04:25:41;50.28;;;17.48;;
63050;SDS011;49136;47.416;19.402;2022-10-30T04:28:06;60.10;;;18.52;;
63050;SDS011;49136;47.416;19.402;2022-10-30T04:30:32;57.22;;;19.33;;
63050;SDS011;49136;47.416;19.402;2022-10-30T04:32:59;53.95;;;18.55;;
63050;SDS011;49136;47.416;19.402;2022-10-30T04:35:27;47.35;;;16.33;;
63050;SDS011;49136;47.416;19.402;2022-10-30T04:37:54;54.40;;;16.02;;
63050;SDS011;49136;47.416;19.402;2022-10-30T04:40:22;62.13;;;17.45;;
63050;SDS011;49136;47.416;19.402;2022-10-30T04:42:49;52.17;;;17.42;;
63050;SDS011;49136;47.416;19.402;2022-10-30T04:45:14;59.05;;;17.48;;
63050;SDS011;49136;47.416;19.402;2022-10-30T04:47:40;44.28;;;16.30;;
63050;SDS011;49136;47.416;19.402;2022-10-30T04:50:05;60.67;;;17.83;;
63050;SDS011;49136;47.416;19.402;2022-10-30T04:52:31;50.67;;;15.00;;
63050;SDS011;49136;47.416;19.402;2022-10-30T04:54:56;59.88;;;18.67;;
63050;SDS011;49136;47.416;19.402;2022-10-30T04:57:22;56.13;;;16.83;;
63050;SDS011;49136;47.416;19.402;2022-10-30T04:59:47;41.88;;;15.95;;
63050;SDS011;49136;47.416;19.402;2022-10-30T05:02:13;47.47;;;17.30;;
63050;SDS011;49136;47.416;19.402;2022-10-30T05:04:38;55.17;;;18.48;;
63050;SDS011;49136;47.416;19.402;2022-10-30T05:07:04;52.08;;;16.85;;
63050;SDS011;49136;47.416;19.402;2022-10-30T05:09:30;48.45;;;16.33;;
63050;SDS011;49136;47.416;19.402;2022-10-30T05:11:56;52.38;;;16.63;;
63050;SDS011;49136;47.416;19.402;2022-10-30T05:14:21;55.00;;;17.13;;
63050;SDS011;49136;47.416;19.402;2022-10-30T05:16:46;57.42;;;18.20;;
63050;SDS011;49136;47.416;19.402;2022-10-30T05:19:12;51.35;;;18.55;;
63050;SDS011;49136;47.416;19.402;2022-10-30T05:21:37;49.35;;;17.80;;
63050;SDS011;49136;47.416;19.402;2022-10-30T05:24:02;44.03;;;14.30;;
63050;SDS011;49136;47.416;19.402;2022-10-30T05:26:28;42.38;;;14.40;;
63050;SDS011;49136;47.416;19.402;2022-10-30T05:28:53;46.70;;;15.95;;
63050;SDS011;49136;47.416;19.402;2022-10-30T05:31:18;42.70;;;14.95;;
63050;SDS011;49136;47.416;19.402;2022-10-30T05:33:44;46.38;;;15.98;;
63050;SDS011;49136;47.416;19.402;2022-10-30T05:36:09;42.05;;;14.30;;
63050;SDS011;49136;47.416;19.402;2022-10-30T05:38:35;61.00;;;17.92;;
63050;SDS011;49136;47.416;19.402;2022-10-30T05:41:00;71.85;;;25.30;;
63050;SDS011;49136;47.416;19.402;2022-10-30T05:43:25;61.45;;;21.08;;
63050;SDS011;49136;47.416;19.402;2022-10-30T05:45:51;41.28;;;16.05;;
63050;SDS011;49136;47.416;19.402;2022-10-30T05:48:16;49.75;;;16.88;;
63050;SDS011;49136;47.416;19.402;2022-10-30T05:50:41;43.38;;;13.52;;
63050;SDS011;49136;47.416;19.402;2022-10-30T05:53:07;47.88;;;15.48;;
63050;SDS011;49136;47.416;19.402;2022-10-30T05:55:33;36.92;;;12.90;;
63050;SDS011;49136;47.416;19.402;2022-10-30T05:57:59;29.90;;;12.10;;
63050;SDS011;49136;47.416;19.402;2022-10-30T06:00:26;32.05;;;11.88;;
63050;SDS011;49136;47.416;19.402;2022-10-30T06:03:03;36.25;;;14.43;;
63050;SDS011;49136;47.416;19.402;2022-10-30T06:05:30;34.25;;;12.32;;
63050;SDS011;49136;47.416;19.402;2022-10-30T06:07:57;36.22;;;12.57;;
63050;SDS011;49136;47.416;19.402;2022-10-30T06:10:23;39.45;;;14.40;;
63050;SDS011;49136;47.416;19.402;2022-10-30T06:12:52;35.15;;;13.75;;
63050;SDS011;49136;47.416;19.402;2022-10-30T06:15:23;43.15;;;13.55;;
63050;SDS011;49136;47.416;19.402;2022-10-30T06:17:49;45.38;;;13.27;;
63050;SDS011;49136;47.416;19.402;2022-10-30T06:20:15;43.90;;;14.45;;
63050;SDS011;49136;47.416;19.402;2022-10-30T06:22:41;34.95;;;13.35;;
63050;SDS011;49136;47.416;19.402;2022-10-30T06:25:06;36.15;;;14.43;;
63050;SDS011;49136;47.416;19.402;2022-10-30T06:27:35;46.95;;;16.42;;
63050;SDS011;49136;47.416;19.402;2022-10-30T06:30:00;37.28;;;13.80;;
63050;SDS011;49136;47.416;19.402;2022-10-30T06:32:26;35.70;;;13.48;;
63050;SDS011;49136;47.416;19.402;2022-10-30T06:34:51;37.63;;;14.32;;
63050;SDS011;49136;47.416;19.402;2022-10-30T06:37:16;37.90;;;14.90;;
63050;SDS011;49136;47.416;19.402;2022-10-30T06:39:42;49.63;;;16.85;;
63050;SDS011;49136;47.416;19.402;2022-10-30T06:42:08;43.10;;;13.57;;
63050;SDS011;49136;47.416;19.402;2022-10-30T06:44:34;31.73;;;11.45;;
63050;SDS011;49136;47.416;19.402;2022-10-30T06:46:59;38.47;;;13.48;;
63050;SDS011;49136;47.416;19.402;2022-10-30T06:49:24;33.15;;;12.85;;
63050;SDS011;49136;47.416;19.402;2022-10-30T06:51:50;34.42;;;11.93;;
63050;SDS011;49136;47.416;19.402;2022-10-30T06:54:15;31.42;;;11.75;;
63050;SDS011;49136;47.416;19.402;2022-10-30T06:56:40;45.65;;;13.68;;
63050;SDS011;49136;47.416;19.402;2022-10-30T06:59:06;36.67;;;13.27;;
63050;SDS011;49136;47.416;19.402;2022-10-30T07:01:32;37.28;;;13.15;;
63050;SDS011;49136;47.416;19.402;2022-10-30T07:03:57;31.35;;;10.48;;
63050;SDS011;49136;47.416;19.402;2022-10-30T07:06:22;41.40;;;11.82;;
63050;SDS011;49136;47.416;19.402;2022-10-30T07:08:48;37.72;;;12.10;;
63050;SDS011;49136;47.416;19.402;2022-10-30T07:11:13;34.42;;;12.93;;
63050;SDS011;49136;47.416;19.402;2022-10-30T07:13:39;32.85;;;11.18;;
63050;SDS011;49136;47.416;19.402;2022-10-30T07:16:04;27.00;;;11.35;;
63050;SDS011;49136;47.416;19.402;2022-10-30T07:18:30;28.77;;;13.15;;
63050;SDS011;49136;47.416;19.402;2022-10-30T07:20:55;34.75;;;10.43;;
63050;SDS011;49136;47.416;19.402;2022-10-30T07:23:21;26.48;;;10.10;;
63050;SDS011;49136;47.416;19.402;2022-10-30T07:25:47;29.10;;;11.50;;
63050;SDS011;49136;47.416;19.402;2022-10-30T07:28:12;26.48;;;10.57;;
63050;SDS011;49136;47.416;19.402;2022-10-30T07:30:37;34.92;;;9.15;;
63050;SDS011;49136;47.416;19.402;2022-10-30T07:33:03;23.98;;;8.00;;
63050;SDS011;49136;47.416;19.402;2022-10-30T07:35:30;30.65;;;10.38;;
63050;SDS011;49136;47.416;19.402;2022-10-30T07:38:07;23.40;;;8.00;;
63050;SDS011;49136;47.416;19.402;2022-10-30T07:40:35;29.73;;;9.57;;
63050;SDS011;49136;47.416;19.402;2022-10-30T07:43:00;32.38;;;11.48;;
63050;SDS011;49136;47.416;19.402;2022-10-30T07:45:27;22.85;;;8.93;;
63050;SDS011;49136;47.416;19.402;2022-10-30T07:47:53;30.63;;;11.00;;
63050;SDS011;49136;47.416;19.402;2022-10-30T07:50:19;25.13;;;10.63;;
63050;SDS011;49136;47.416;19.402;2022-10-30T07:52:44;32.75;;;9.55;;
63050;SDS011;49136;47.416;19.402;2022-10-30T07:55:10;33.03;;;12.20;;
63050;SDS011;49136;47.416;19.402;2022-10-30T07:57:36;36.97;;;9.63;;
63050;SDS011;49136;47.416;19.402;2022-10-30T08:00:07;16.65;;;9.15;;
63050;SDS011;49136;47.416;19.402;2022-10-30T08:02:35;21.83;;;10.68;;
63050;SDS011;49136;47.416;19.402;2022-10-30T08:05:01;25.52;;;10.23;;
63050;SDS011;49136;47.416;19.402;2022-10-30T08:07:30;31.02;;;9.93;;
63050;SDS011;49136;47.416;19.402;2022-10-30T08:09:59;16.92;;;7.32;;
63050;SDS011;49136;47.416;19.402;2022-10-30T08:12:24;21.58;;;8.80;;
63050;SDS011;49136;47.416;19.402;2022-10-30T08:14:51;24.48;;;9.65;;
63050;SDS011;49136;47.416;19.402;2022-10-30T08:17:17;24.17;;;9.85;;
63050;SDS011;49136;47.416;19.402;2022-10-30T08:19:43;19.40;;;8.13;;
63050;SDS011;49136;47.416;19.402;2022-10-30T08:22:09;31.05;;;9.75;;
63050;SDS011;49136;47.416;19.402;2022-10-30T08:24:35;22.83;;;8.80;;
63050;SDS011;49136;47.416;19.402;2022-10-30T08:27:00;19.33;;;8.23;;
63050;SDS011;49136;47.416;19.402;2022-10-30T08:29:26;26.27;;;9.15;;
63050;SDS011;49136;47.416;19.402;2022-10-30T08:31:51;37.88;;;13.63;;
63050;SDS011;49136;47.416;19.402;2022-10-30T08:34:16;26.23;;;8.93;;
63050;SDS011;49136;47.416;19.402;2022-10-30T08:36:42;16.05;;;7.30;;
63050;SDS011;49136;47.416;19.402;2022-10-30T08:39:07;19.67;;;7.90;;
63050;SDS011;49136;47.416;19.402;2022-10-30T08:41:33;28.67;;;10.00;;
63050;SDS011;49136;47.416;19.402;2022-10-30T08:43:58;26.25;;;10.05;;
63050;SDS011;49136;47.416;19.402;2022-10-30T08:46:23;22.00;;;7.90;;
63050;SDS011;49136;47.416;19.402;2022-10-30T08:48:49;27.58;;;9.15;;
63050;SDS011;49136;47.416;19.402;2022-10-30T08:51:14;29.35;;;10.18;;
63050;SDS011;49136;47.416;19.402;2022-10-30T08:53:40;20.30;;;7.88;;
63050;SDS011;49136;47.416;19.402;2022-10-30T08:56:05;30.08;;;9.40;;
63050;SDS011;49136;47.416;19.402;2022-10-30T08:58:30;34.83;;;10.63;;
63050;SDS011;49136;47.416;19.402;2022-10-30T09:00:56;25.60;;;10.77;;
63050;SDS011;49136;47.416;19.402;2022-10-30T09:03:21;27.15;;;11.32;;
63050;SDS011;49136;47.416;19.402;2022-10-30T09:05:47;24.65;;;9.32;;
63050;SDS011;49136;47.416;19.402;2022-10-30T09:08:13;25.10;;;10.05;;
63050;SDS011;49136;47.416;19.402;2022-10-30T09:10:38;33.00;;;12.13;;
63050;SDS011;49136;47.416;19.402;2022-10-30T09:13:03;29.90;;;11.75;;
63050;SDS011;49136;47.416;19.402;2022-10-30T09:15:29;35.95;;;11.23;;
63050;SDS011;49136;47.416;19.402;2022-10-30T09:17:58;33.35;;;12.07;;
63050;SDS011;49136;47.416;19.402;2022-10-30T09:20:25;31.70;;;13.68;;
63050;SDS011;49136;47.416;19.402;2022-10-30T09:22:51;24.48;;;10.43;;
63050;SDS011;49136;47.416;19.402;2022-10-30T09:25:16;30.30;;;11.68;;
63050;SDS011;49136;47.416;19.402;2022-10-30T09:27:42;28.92;;;11.02;;
63050;SDS011;49136;47.416;19.402;2022-10-30T09:30:07;24.33;;;10.57;;
63050;SDS011;49136;47.416;19.402;2022-10-30T09:32:33;28.98;;;9.27;;
63050;SDS011;49136;47.416;19.402;2022-10-30T09:34:59;26.60;;;10.75;;
63050;SDS011;49136;47.416;19.402;2022-10-30T09:37:24;30.70;;;11.07;;
63050;SDS011;49136;47.416;19.402;2022-10-30T09:39:51;21.70;;;10.13;;
63050;SDS011;49136;47.416;19.402;2022-10-30T10:01:09;25.17;;;10.30;;
63050;SDS011;49136;47.416;19.402;2022-10-30T10:06:26;28.35;;;11.13;;
63050;SDS011;49136;47.416;19.402;2022-10-30T10:08:54;30.08;;;9.95;;
63050;SDS011;49136;47.416;19.402;2022-10-30T10:11:36;27.10;;;11.48;;
63050;SDS011;49136;47.416;19.402;2022-10-30T10:14:13;30.90;;;11.20;;
63050;SDS011;49136;47.416;19.402;2022-10-30T10:16:44;27.75;;;10.77;;
63050;SDS011;49136;47.416;19.402;2022-10-30T10:19:19;31.23;;;12.15;;
63050;SDS011;49136;47.416;19.402;2022-10-30T10:22:19;27.63;;;11.30;;
63050;SDS011;49136;47.416;19.402;2022-10-30T10:24:46;24.63;;;9.30;;
63050;SDS011;49136;47.416;19.402;2022-10-30T10:30:04;25.80;;;11.07;;
63050;SDS011;49136;47.416;19.402;2022-10-30T10:40:52;25.52;;;9.82;;
63050;SDS011;49136;47.416;19.402;2022-10-30T10:43:40;25.33;;;11.13;;
63050;SDS011;49136;47.416;19.402;2022-10-30T10:48:54;27.25;;;9.93;;
63050;SDS011;49136;47.416;19.402;2022-10-30T10:51:55;33.97;;;10.50;;
63050;SDS011;49136;47.416;19.402;2022-10-30T10:54:27;32.13;;;11.10;;
63050;SDS011;49136;47.416;19.402;2022-10-30T10:56:57;32.88;;;10.65;;
63050;SDS011;49136;47.416;19.402;2022-10-30T10:59:33;33.20;;;10.95;;
63050;SDS011;49136;47.416;19.402;2022-10-30T11:04:38;25.75;;;11.10;;
63050;SDS011;49136;47.416;19.402;2022-10-30T11:07:15;38.33;;;11.93;;
63050;SDS011;49136;47.416;19.402;2022-10-30T11:09:46;34.75;;;11.82;;
63050;SDS011;49136;47.416;19.402;2022-10-30T11:12:29;37.20;;;13.00;;
63050;SDS011;49136;47.416;19.402;2022-10-30T11:15:04;33.40;;;11.75;;
63050;SDS011;49136;47.416;19.402;2022-10-30T11:17:57;30.80;;;12.95;;
63050;SDS011;49136;47.416;19.402;2022-10-30T11:20:35;29.00;;;11.70;;
63050;SDS011;49136;47.416;19.402;2022-10-30T11:23:24;44.88;;;12.50;;
63050;SDS011;49136;47.416;19.402;2022-10-30T11:25:55;32.85;;;12.45;;
63050;SDS011;49136;47.416;19.402;2022-10-30T11:28:55;35.42;;;13.05;;
63050;SDS011;49136;47.416;19.402;2022-10-30T11:31:27;26.25;;;11.90;;
63050;SDS011;49136;47.416;19.402;2022-10-30T11:36:42;30.38;;;13.00;;
63050;SDS011;49136;47.416;19.402;2022-10-30T11:39:45;32.15;;;11.50;;
63050;SDS011;49136;47.416;19.402;2022-10-30T11:42:13;41.72;;;13.27;;
63050;SDS011;49136;47.416;19.402;2022-10-30T11:44:43;29.05;;;12.90;;
63050;SDS011;49136;47.416;19.402;2022-10-30T11:47:11;31.08;;;11.90;;
63050;SDS011;49136;47.416;19.402;2022-10-30T11:49:44;28.85;;;11.25;;
63050;SDS011;49136;47.416;19.402;2022-10-30T11:52:17;43.63;;;12.93;;
63050;SDS011;49136;47.416;19.402;2022-10-30T11:54:45;25.08;;;12.70;;
63050;SDS011;49136;47.416;19.402;2022-10-30T11:57:17;41.15;;;12.52;;
63050;SDS011;49136;47.416;19.402;2022-10-30T12:00:04;36.47;;;12.73;;
63050;SDS011;49136;47.416;19.402;2022-10-30T12:02:42;39.08;;;13.65;;
63050;SDS011;49136;47.416;19.402;2022-10-30T12:07:50;32.78;;;11.20;;
63050;SDS011;49136;47.416;19.402;2022-10-30T12:10:26;38.67;;;12.82;;
63050;SDS011;49136;47.416;19.402;2022-10-30T12:12:53;40.50;;;13.52;;
63050;SDS011;49136;47.416;19.402;2022-10-30T12:15:19;28.67;;;12.05;;
63050;SDS011;49136;47.416;19.402;2022-10-30T12:17:59;38.33;;;12.95;;
63050;SDS011;49136;47.416;19.402;2022-10-30T12:20:26;41.10;;;15.10;;
63050;SDS011;49136;47.416;19.402;2022-10-30T12:22:52;35.60;;;12.77;;
63050;SDS011;49136;47.416;19.402;2022-10-30T12:25:20;35.80;;;13.65;;
63050;SDS011;49136;47.416;19.402;2022-10-30T12:27:46;37.20;;;12.15;;
63050;SDS011;49136;47.416;19.402;2022-10-30T12:35:45;33.97;;;11.75;;
63050;SDS011;49136;47.416;19.402;2022-10-30T12:38:24;34.50;;;11.38;;
63050;SDS011;49136;47.416;19.402;2022-10-30T12:43:37;35.78;;;12.18;;
63050;SDS011;49136;47.416;19.402;2022-10-30T12:49:06;29.77;;;10.77;;
63050;SDS011;49136;47.416;19.402;2022-10-30T12:51:56;29.23;;;12.15;;
63050;SDS011;49136;47.416;19.402;2022-10-30T12:54:32;23.55;;;10.57;;
63050;SDS011;49136;47.416;19.402;2022-10-30T12:57:09;39.47;;;13.05;;
63050;SDS011;49136;47.416;19.402;2022-10-30T13:08:39;36.28;;;11.38;;
63050;SDS011;49136;47.416;19.402;2022-10-30T13:16:25;28.60;;;10.88;;
63050;SDS011;49136;47.416;19.402;2022-10-30T13:18:54;27.98;;;11.02;;
63050;SDS011;49136;47.416;19.402;2022-10-30T13:21:26;41.95;;;14.32;;
63050;SDS011;49136;47.416;19.402;2022-10-30T13:34:03;28.85;;;10.55;;
63050;SDS011;49136;47.416;19.402;2022-10-30T13:42:22;36.45;;;11.85;;
63050;SDS011;49136;47.416;19.402;2022-10-30T13:45:11;31.38;;;11.93;;
63050;SDS011;49136;47.416;19.402;2022-10-30T13:53:00;26.77;;;10.60;;
63050;SDS011;49136;47.416;19.402;2022-10-30T13:55:30;31.50;;;11.40;;
63050;SDS011;49136;47.416;19.402;2022-10-30T14:06:20;38.85;;;13.07;;
63050;SDS011;49136;47.416;19.402;2022-10-30T14:11:47;25.63;;;11.65;;
63050;SDS011;49136;47.416;19.402;2022-10-30T14:17:02;25.85;;;11.32;;
63050;SDS011;49136;47.416;19.402;2022-10-30T14:20:19;33.78;;;12.20;;
63050;SDS011;49136;47.416;19.402;2022-10-30T14:22:28;30.92;;;13.73;;
63050;SDS011;49136;47.416;19.402;2022-10-30T14:24:54;34.72;;;14.18;;
63050;SDS011;49136;47.416;19.402;2022-10-30T14:27:20;39.72;;;12.57;;
63050;SDS011;49136;47.416;19.402;2022-10-30T14:29:51;31.17;;;11.48;;
63050;SDS011;49136;47.416;19.402;2022-10-30T14:34:55;35.50;;;11.63;;
63050;SDS011;49136;47.416;19.402;2022-10-30T14:39:51;23.95;;;11.15;;
63050;SDS011;49136;47.416;19.402;2022-10-30T14:45:31;31.55;;;12.57;;
63050;SDS011;49136;47.416;19.402;2022-10-30T14:48:18;49.45;;;15.70;;
63050;SDS011;49136;47.416;19.402;2022-10-30T14:58:36;37.85;;;13.25;;
63050;SDS011;49136;47.416;19.402;2022-10-30T15:14:23;39.90;;;15.32;;
63050;SDS011;49136;47.416;19.402;2022-10-30T15:16:54;29.42;;;15.50;;
63050;SDS011;49136;47.416;19.402;2022-10-30T15:19:20;35.63;;;15.82;;
63050;SDS011;49136;47.416;19.402;2022-10-30T15:21:54;37.22;;;13.77;;
63050;SDS011;49136;47.416;19.402;2022-10-30T15:24:24;40.80;;;13.98;;
63050;SDS011;49136;47.416;19.402;2022-10-30T15:26:53;37.35;;;13.18;;
63050;SDS011;49136;47.416;19.402;2022-10-30T15:29:29;28.90;;;12.60;;
63050;SDS011;49136;47.416;19.402;2022-10-30T15:32:03;36.17;;;13.95;;
63050;SDS011;49136;47.416;19.402;2022-10-30T15:34:39;37.58;;;13.23;;
63050;SDS011;49136;47.416;19.402;2022-10-30T15:37:10;38.13;;;13.05;;
63050;SDS011;49136;47.416;19.402;2022-10-30T15:39:36;38.72;;;15.02;;
63050;SDS011;49136;47.416;19.402;2022-10-30T15:42:02;37.28;;;13.93;;
63050;SDS011;49136;47.416;19.402;2022-10-30T15:44:39;41.28;;;14.45;;
63050;SDS011;49136;47.416;19.402;2022-10-30T15:47:25;38.22;;;14.98;;
63050;SDS011;49136;47.416;19.402;2022-10-30T15:49:50;33.85;;;14.15;;
63050;SDS011;49136;47.416;19.402;2022-10-30T15:52:25;35.03;;;13.77;;
63050;SDS011;49136;47.416;19.402;2022-10-30T15:54:56;39.78;;;15.32;;
63050;SDS011;49136;47.416;19.402;2022-10-30T15:57:29;40.50;;;13.77;;
63050;SDS011;49136;47.416;19.402;2022-10-30T15:59:58;35.78;;;14.77;;
63050;SDS011;49136;47.416;19.402;2022-10-30T16:02:28;33.97;;;14.67;;
63050;SDS011;49136;47.416;19.402;2022-10-30T16:04:54;34.97;;;14.90;;
63050;SDS011;49136;47.416;19.402;2022-10-30T16:07:23;41.85;;;16.70;;
63050;SDS011;49136;47.416;19.402;2022-10-30T16:09:54;31.27;;;13.27;;
63050;SDS011;49136;47.416;19.402;2022-10-30T16:12:24;40.00;;;13.82;;
63050;SDS011;49136;47.416;19.402;2022-10-30T16:14:51;34.78;;;12.43;;
63050;SDS011;49136;47.416;19.402;2022-10-30T16:17:18;38.00;;;16.17;;
63050;SDS011;49136;47.416;19.402;2022-10-30T16:19:48;35.75;;;15.10;;
63050;SDS011;49136;47.416;19.402;2022-10-30T16:22:30;43.38;;;17.05;;
63050;SDS011;49136;47.416;19.402;2022-10-30T16:24:59;37.97;;;16.17;;
63050;SDS011;49136;47.416;19.402;2022-10-30T16:27:25;43.78;;;14.35;;
63050;SDS011;49136;47.416;19.402;2022-10-30T16:29:55;32.15;;;13.32;;
63050;SDS011;49136;47.416;19.402;2022-10-30T16:34:49;42.05;;;14.40;;
63050;SDS011;49136;47.416;19.402;2022-10-30T16:37:24;41.22;;;15.60;;
63050;SDS011;49136;47.416;19.402;2022-10-30T16:39:56;32.08;;;14.88;;
63050;SDS011;49136;47.416;19.402;2022-10-30T16:42:24;41.97;;;16.75;;
63050;SDS011;49136;47.416;19.402;2022-10-30T16:47:54;44.40;;;15.77;;
63050;SDS011;49136;47.416;19.402;2022-10-30T16:50:25;48.67;;;14.48;;
63050;SDS011;49136;47.416;19.402;2022-10-30T16:52:53;46.50;;;17.88;;
63050;SDS011;49136;47.416;19.402;2022-10-30T16:55:20;39.40;;;14.77;;
63050;SDS011;49136;47.416;19.402;2022-10-30T16:57:47;39.75;;;15.57;;
63050;SDS011;49136;47.416;19.402;2022-10-30T17:00:24;34.20;;;14.52;;
63050;SDS011;49136;47.416;19.402;2022-10-30T17:02:52;45.03;;;13.50;;